Time;durP1;ratioP1;P1;durP2;ratioP2;P2;SDS_P1;SDS_P2;PMS_P1;PMS_P2;Temp;Humidity;BMP_temperature;BMP_pressure;BME280_temperature;BME280_humidity;BME280_pressure;Samples;Min_cycle;Max_cycle;Signal;HPM_P1;HPM_P2
2021/06/13 00:00:37;;;;;;;58.37;2.70;;;17.20;1.00;;;;;;5013393;28;20555;-66
2021/06/13 00:03:03;;;;;;;58.17;2.90;;;17.20;1.00;;;;;;5013553;28;20540;-66
2021/06/13 00:05:30;;;;;;;58.57;2.97;;;17.20;1.00;;;;;;5013490;28;20881;-67
2021/06/13 00:07:56;;;;;;;59.00;3.00;;;17.20;1.00;;;;;;5011987;28;20516;-66
2021/06/13 00:10:23;;;;;;;58.37;2.97;;;17.20;1.00;;;;;;5003904;28;20561;-66
2021/06/13 00:12:49;;;;;;;58.77;3.37;;;17.20;1.00;;;;;;4993774;28;20454;-65
2021/06/13 00:15:19;;;;;;;58.77;3.10;;;17.20;1.00;;;;;;4993556;28;20585;-67
2021/06/13 00:17:47;;;;;;;58.40;2.83;;;17.00;1.00;;;;;;4993667;28;20492;-66
2021/06/13 00:20:16;;;;;;;58.47;2.60;;;17.20;1.00;;;;;;4993752;28;20481;-66
2021/06/13 00:22:43;;;;;;;58.17;2.60;;;17.10;1.00;;;;;;4993694;28;20826;-66
2021/06/13 00:25:12;;;;;;;59.10;3.00;;;17.10;1.00;;;;;;4993689;28;20759;-67
2021/06/13 00:27:38;;;;;;;59.03;3.50;;;17.10;1.00;;;;;;4993091;28;20896;-66
2021/06/13 00:30:07;;;;;;;59.17;3.40;;;17.10;1.00;;;;;;4993272;28;20576;-67
2021/06/13 00:32:34;;;;;;;59.20;3.00;;;17.00;1.00;;;;;;4993556;28;20488;-67
2021/06/13 00:35:02;;;;;;;58.57;3.20;;;17.00;1.00;;;;;;4993579;28;20536;-67
2021/06/13 00:37:28;;;;;;;58.67;3.10;;;17.00;1.00;;;;;;4993177;28;20542;-66
2021/06/13 00:39:54;;;;;;;58.60;2.90;;;17.00;1.00;;;;;;5005055;28;20477;-67
2021/06/13 00:42:21;;;;;;;58.27;2.70;;;17.00;1.00;;;;;;4996664;28;20461;-66
2021/06/13 00:44:48;;;;;;;58.47;2.80;;;17.00;1.00;;;;;;4993161;28;20541;-67
2021/06/13 00:47:14;;;;;;;58.50;2.60;;;17.00;1.00;;;;;;4993270;28;20454;-67
2021/06/13 00:49:40;;;;;;;58.57;2.60;;;16.90;1.00;;;;;;4993123;28;20560;-66
2021/06/13 00:52:08;;;;;;;58.60;3.00;;;16.90;1.00;;;;;;4993106;28;20457;-66
2021/06/13 00:54:35;;;;;;;58.70;2.70;;;16.90;1.00;;;;;;4992875;28;21017;-67
2021/06/13 00:57:01;;;;;;;58.80;3.40;;;16.80;1.00;;;;;;4992624;28;20919;-67
2021/06/13 00:59:27;;;;;;;58.37;2.50;;;16.80;1.00;;;;;;4992681;28;20568;-68
2021/06/13 01:01:54;;;;;;;58.43;2.77;;;16.80;1.00;;;;;;4993029;28;20552;-67
2021/06/13 01:04:20;;;;;;;58.30;3.40;;;16.80;1.00;;;;;;4992896;28;20489;-67
2021/06/13 01:07:02;;;;;;;58.57;2.87;;;16.80;1.00;;;;;;4992634;28;20460;-68
2021/06/13 01:09:34;;;;;;;59.30;3.90;;;16.70;1.00;;;;;;4992652;28;20488;-67
2021/06/13 01:12:06;;;;;;;59.83;3.17;;;16.70;1.00;;;;;;4995705;28;20455;-67
2021/06/13 01:14:39;;;;;;;59.60;3.40;;;16.70;1.00;;;;;;5012332;28;20583;-67
2021/06/13 01:17:12;;;;;;;58.13;2.80;;;16.70;1.00;;;;;;5012084;28;20448;-68
2021/06/13 01:19:47;;;;;;;58.50;2.70;;;16.70;1.00;;;;;;5012222;28;20913;-67
2021/06/13 01:22:37;;;;;;;58.50;2.80;;;16.70;1.00;;;;;;5012537;28;20527;-68
2021/06/13 01:25:16;;;;;;;59.80;3.70;;;16.70;1.00;;;;;;5012393;28;20454;-67
2021/06/13 01:28:03;;;;;;;58.90;3.43;;;16.60;1.00;;;;;;5012057;28;20513;-68
2021/06/13 01:30:32;;;;;;;58.07;2.80;;;16.60;1.00;;;;;;5012098;28;20907;-68
2021/06/13 01:33:02;;;;;;;58.47;2.77;;;16.60;1.00;;;;;;5012448;28;20449;-67
2021/06/13 01:35:29;;;;;;;59.27;2.73;;;16.60;1.00;;;;;;5012078;28;20483;-68
2021/06/13 01:37:56;;;;;;;58.57;3.60;;;16.50;1.00;;;;;;5011641;28;20552;-67
2021/06/13 01:40:28;;;;;;;59.40;3.30;;;16.50;1.00;;;;;;5011756;28;20522;-67
2021/06/13 01:42:57;;;;;;;58.37;2.80;;;16.50;1.00;;;;;;4994027;28;20548;-68
2021/06/13 01:45:28;;;;;;;59.77;3.53;;;16.40;1.00;;;;;;5011830;28;20451;-67
2021/06/13 01:47:56;;;;;;;58.47;2.93;;;16.40;1.00;;;;;;5011818;28;20856;-67
2021/06/13 01:50:24;;;;;;;58.37;2.73;;;16.40;1.00;;;;;;5011823;28;20542;-68
2021/06/13 01:52:52;;;;;;;58.33;2.67;;;16.40;1.00;;;;;;5015784;28;20797;-67
2021/06/13 01:55:19;;;;;;;59.67;3.57;;;16.40;1.00;;;;;;5015690;28;20581;-68
2021/06/13 01:57:46;;;;;;;58.60;2.90;;;16.30;1.00;;;;;;5015597;28;20541;-67
2021/06/13 02:00:15;;;;;;;58.37;2.80;;;16.30;1.00;;;;;;5015830;28;20618;-67
2021/06/13 02:02:44;;;;;;;57.97;2.80;;;16.30;1.00;;;;;;5015760;28;20963;-67
2021/06/13 02:05:13;;;;;;;58.90;3.10;;;16.30;1.00;;;;;;5015756;28;20480;-67
2021/06/13 02:07:41;;;;;;;57.67;2.50;;;16.30;1.00;;;;;;5015300;28;20451;-67
2021/06/13 02:10:11;;;;;;;59.07;3.50;;;16.30;1.00;;;;;;5015733;28;20451;-67
2021/06/13 02:12:39;;;;;;;58.70;3.10;;;16.30;1.00;;;;;;5014341;28;20543;-67
2021/06/13 02:15:07;;;;;;;58.10;2.67;;;16.30;1.00;;;;;;5015496;28;20487;-67
2021/06/13 02:17:35;;;;;;;59.00;3.70;;;16.30;1.00;;;;;;5015296;28;20537;-67
2021/06/13 02:20:02;;;;;;;58.67;3.10;;;16.30;1.00;;;;;;5015459;28;20451;-67
2021/06/13 02:22:31;;;;;;;59.10;3.50;;;16.30;1.00;;;;;;5015445;28;20883;-67
2021/06/13 02:24:57;;;;;;;60.60;3.63;;;16.40;1.00;;;;;;5015741;28;20443;-67
2021/06/13 02:27:27;;;;;;;58.47;2.97;;;16.40;1.00;;;;;;5015328;28;20925;-67
2021/06/13 02:29:54;;;;;;;58.60;3.63;;;16.40;1.00;;;;;;5015456;28;20744;-67
2021/06/13 02:32:21;;;;;;;58.20;3.00;;;16.40;1.00;;;;;;5015244;28;20487;-67
2021/06/13 02:34:49;;;;;;;58.03;2.70;;;16.50;1.00;;;;;;5015065;28;20484;-67
2021/06/13 02:37:17;;;;;;;59.93;3.67;;;16.50;1.00;;;;;;5015263;28;20546;-67
2021/06/13 02:39:46;;;;;;;58.60;2.97;;;16.50;1.00;;;;;;5014912;28;20538;-67
2021/06/13 02:42:13;;;;;;;58.67;3.20;;;16.50;1.00;;;;;;5014998;28;21009;-67
2021/06/13 02:44:39;;;;;;;59.00;3.10;;;16.50;1.00;;;;;;5013736;28;20560;-67
2021/06/13 02:47:06;;;;;;;58.77;3.30;;;16.50;1.00;;;;;;5014678;28;20463;-68
2021/06/13 02:49:32;;;;;;;58.37;3.30;;;16.50;1.00;;;;;;5014597;28;20472;-68
2021/06/13 02:52:06;;;;;;;58.27;2.77;;;16.50;1.00;;;;;;5015020;28;20888;-68
2021/06/13 02:54:35;;;;;;;58.10;3.00;;;16.50;1.00;;;;;;5014959;28;20487;-68
2021/06/13 02:57:07;;;;;;;58.80;3.50;;;16.50;1.00;;;;;;5014704;28;20490;-68
2021/06/13 02:59:38;;;;;;;58.67;3.07;;;16.50;1.00;;;;;;5014640;28;20968;-67
2021/06/13 03:02:08;;;;;;;58.23;3.10;;;16.50;1.00;;;;;;5014596;28;20448;-68
2021/06/13 03:04:36;;;;;;;58.67;3.00;;;16.50;1.00;;;;;;5014219;28;20542;-67
2021/06/13 03:07:04;;;;;;;57.97;2.80;;;16.50;1.00;;;;;;5014526;28;20541;-68
2021/06/13 03:09:33;;;;;;;59.27;4.17;;;16.50;1.00;;;;;;5014528;28;20467;-68
2021/06/13 03:12:00;;;;;;;58.67;3.40;;;16.50;1.00;;;;;;5014634;28;20543;-67
2021/06/13 03:14:30;;;;;;;59.10;4.30;;;16.40;1.00;;;;;;5014338;28;20466;-68
2021/06/13 03:16:58;;;;;;;58.23;3.07;;;16.40;1.00;;;;;;5014491;28;20498;-68
2021/06/13 03:19:25;;;;;;;59.17;3.90;;;16.40;1.00;;;;;;5013142;28;20485;-67
2021/06/13 03:21:52;;;;;;;61.57;3.40;;;16.30;1.00;;;;;;5014339;28;20536;-67
2021/06/13 03:24:21;;;;;;;58.63;3.13;;;16.40;1.00;;;;;;5014284;28;20547;-68
2021/06/13 03:26:48;;;;;;;58.10;3.00;;;16.30;1.00;;;;;;5014399;28;20540;-68
2021/06/13 03:29:14;;;;;;;58.37;2.70;;;16.30;1.00;;;;;;5014044;28;21148;-67
2021/06/13 03:31:43;;;;;;;58.40;2.80;;;16.30;1.00;;;;;;5014338;28;20463;-67
2021/06/13 03:34:10;;;;;;;57.87;2.70;;;16.40;1.00;;;;;;5014296;28;20570;-67
2021/06/13 03:36:39;;;;;;;57.93;2.60;;;16.30;1.00;;;;;;5013932;28;20491;-67
2021/06/13 03:39:06;;;;;;;57.97;2.43;;;16.40;1.00;;;;;;5014441;28;20504;-67
2021/06/13 03:41:34;;;;;;;58.27;2.70;;;16.30;1.00;;;;;;5014155;28;20437;-67
2021/06/13 03:44:02;;;;;;;58.17;2.50;;;16.40;1.00;;;;;;5014114;28;20453;-67
2021/06/13 03:46:28;;;;;;;58.23;3.00;;;16.40;1.00;;;;;;5013965;28;20534;-67
2021/06/13 03:48:58;;;;;;;58.07;2.70;;;16.40;1.00;;;;;;5013796;28;20478;-67
2021/06/13 03:51:26;;;;;;;58.53;2.93;;;16.50;1.00;;;;;;5012619;28;20456;-67
2021/06/13 03:53:56;;;;;;;58.07;2.57;;;16.50;1.00;;;;;;4997843;28;20492;-67
2021/06/13 03:56:28;;;;;;;58.50;2.90;;;16.50;1.00;;;;;;4994039;28;20483;-67
2021/06/13 03:58:55;;;;;;;58.17;3.10;;;16.50;1.00;;;;;;4994074;28;21003;-67
2021/06/13 04:01:23;;;;;;;58.27;2.53;;;16.50;1.00;;;;;;4994383;28;20540;-67
2021/06/13 04:03:52;;;;;;;58.77;2.87;;;16.50;1.00;;;;;;4994265;28;20460;-67
2021/06/13 04:06:22;;;;;;;58.10;2.50;;;16.40;1.00;;;;;;4993808;28;20451;-67
2021/06/13 04:08:50;;;;;;;58.50;2.90;;;16.40;1.00;;;;;;4993703;28;20554;-67
2021/06/13 04:11:18;;;;;;;58.07;2.70;;;16.40;1.00;;;;;;4993861;28;20456;-67
2021/06/13 04:13:47;;;;;;;58.43;2.93;;;16.30;1.00;;;;;;4993823;28;20448;-67
2021/06/13 04:16:16;;;;;;;58.60;2.60;;;16.30;1.00;;;;;;4992694;28;20521;-67
2021/06/13 04:18:44;;;;;;;58.17;2.47;;;16.20;1.00;;;;;;4993644;28;20504;-67
2021/06/13 04:21:13;;;;;;;58.57;3.03;;;16.10;1.00;;;;;;4994871;28;20454;-67
2021/06/13 04:23:44;;;;;;;58.80;3.73;;;16.00;1.00;;;;;;5013017;28;20451;-67
2021/06/13 04:26:13;;;;;;;58.30;2.80;;;16.00;1.00;;;;;;5013122;28;20884;-67
2021/06/13 04:28:40;;;;;;;58.10;3.03;;;15.90;1.00;;;;;;5013010;28;20465;-67
2021/06/13 04:31:13;;;;;;;58.53;3.00;;;15.80;1.00;;;;;;5013169;28;20451;-67
2021/06/13 04:33:41;;;;;;;57.80;2.70;;;15.80;1.00;;;;;;5012929;28;20458;-67
2021/06/13 04:36:09;;;;;;;58.63;3.17;;;15.70;1.00;;;;;;5012929;28;20488;-67
2021/06/13 04:38:37;;;;;;;59.37;2.87;;;15.70;1.00;;;;;;5012988;28;20554;-67
2021/06/13 04:41:06;;;;;;;58.20;2.50;;;15.60;1.00;;;;;;5013524;28;20447;-67
2021/06/13 04:43:35;;;;;;;58.70;2.90;;;15.60;1.00;;;;;;5013098;28;20551;-67
2021/06/13 04:46:02;;;;;;;59.00;3.33;;;15.60;1.00;;;;;;5013155;28;20450;-67
2021/06/13 04:48:29;;;;;;;59.07;2.90;;;15.50;1.00;;;;;;5012769;28;20482;-67
2021/06/13 04:51:00;;;;;;;59.70;3.60;;;15.50;1.00;;;;;;5013073;28;20475;-67
2021/06/13 04:53:52;;;;;;;58.30;3.20;;;15.50;1.00;;;;;;5011540;28;20550;-67
2021/06/13 04:56:29;;;;;;;58.40;2.70;;;15.40;1.00;;;;;;5012374;28;20541;-67
2021/06/13 04:58:56;;;;;;;58.33;2.90;;;15.40;1.00;;;;;;5012618;28;20575;-67
2021/06/13 05:01:23;;;;;;;58.67;3.20;;;15.40;1.00;;;;;;5011426;28;20935;-67
2021/06/13 05:03:50;;;;;;;58.70;2.90;;;15.40;1.00;;;;;;5012521;28;20532;-67
2021/06/13 05:06:17;;;;;;;58.53;3.10;;;15.40;1.00;;;;;;5012271;28;20475;-67
2021/06/13 05:08:44;;;;;;;58.27;2.90;;;15.40;1.00;;;;;;5012223;28;20503;-67
2021/06/13 05:11:11;;;;;;;58.27;2.60;;;15.50;1.00;;;;;;5012255;28;20446;-67
2021/06/13 05:13:40;;;;;;;58.43;2.97;;;15.50;1.00;;;;;;5012496;28;20530;-67
2021/06/13 05:16:07;;;;;;;58.13;2.60;;;15.50;1.00;;;;;;5012211;28;20572;-67
2021/06/13 05:18:34;;;;;;;58.50;3.33;;;15.50;1.00;;;;;;5012188;28;20928;-67
2021/06/13 05:21:02;;;;;;;58.40;2.90;;;15.50;1.00;;;;;;5012260;28;20469;-67
2021/06/13 05:23:29;;;;;;;58.27;2.47;;;15.60;1.00;;;;;;5004546;28;20488;-67
2021/06/13 05:25:57;;;;;;;58.50;2.57;;;15.50;1.00;;;;;;4991953;28;20486;-67
2021/06/13 05:28:25;;;;;;;59.87;3.43;;;15.60;1.00;;;;;;4992212;28;20551;-68
2021/06/13 05:30:55;;;;;;;58.17;2.40;;;15.60;1.00;;;;;;4992686;28;20538;-67
2021/06/13 05:33:21;;;;;;;58.37;2.50;;;15.60;1.00;;;;;;4992557;28;20898;-68
2021/06/13 05:35:49;;;;;;;58.27;3.20;;;15.60;1.00;;;;;;4992332;28;20553;-67
2021/06/13 05:38:17;;;;;;;58.53;3.27;;;15.70;1.00;;;;;;4991860;28;20470;-68
2021/06/13 05:40:44;;;;;;;58.17;2.40;;;15.60;1.00;;;;;;4992554;28;20527;-67
2021/06/13 05:43:12;;;;;;;58.70;3.67;;;15.70;1.00;;;;;;4992556;28;20545;-67
2021/06/13 05:45:41;;;;;;;58.33;2.70;;;15.70;1.00;;;;;;4992503;28;20631;-67
2021/06/13 05:48:09;;;;;;;58.30;3.13;;;15.70;1.00;;;;;;4992117;28;20841;-67
2021/06/13 05:50:36;;;;;;;58.07;3.00;;;15.70;1.00;;;;;;4992591;28;20448;-68
2021/06/13 05:53:04;;;;;;;58.60;3.17;;;15.80;1.00;;;;;;4992483;28;20539;-68
2021/06/13 05:55:31;;;;;;;58.23;2.90;;;15.80;1.00;;;;;;5005903;28;20462;-68
2021/06/13 05:57:58;;;;;;;58.47;3.30;;;15.80;1.00;;;;;;5011477;28;20504;-69
2021/06/13 06:00:27;;;;;;;58.90;3.83;;;15.90;1.00;;;;;;5011716;28;20850;-68
2021/06/13 06:02:54;;;;;;;58.23;2.60;;;16.00;1.00;;;;;;5011838;28;20450;-68
2021/06/13 06:05:23;;;;;;;58.30;3.23;;;16.00;1.00;;;;;;5011612;28;20501;-66
2021/06/13 06:07:50;;;;;;;58.40;2.70;;;16.00;1.00;;;;;;5011738;28;20487;-67
2021/06/13 06:10:19;;;;;;;57.97;2.60;;;16.10;1.00;;;;;;5011607;28;20447;-68
2021/06/13 06:12:46;;;;;;;58.70;2.90;;;16.20;1.00;;;;;;5011929;28;20454;-68
2021/06/13 06:15:16;;;;;;;58.00;2.80;;;16.20;1.00;;;;;;5011676;28;20542;-68
2021/06/13 06:17:43;;;;;;;58.17;2.60;;;16.20;1.00;;;;;;5011212;28;20535;-68
2021/06/13 06:20:12;;;;;;;59.37;4.43;;;16.20;1.00;;;;;;5011823;28;20608;-68
2021/06/13 06:22:41;;;;;;;58.27;2.77;;;16.30;1.00;;;;;;5011599;28;20487;-68
2021/06/13 06:25:09;;;;;;;58.57;3.20;;;16.30;1.00;;;;;;5010580;28;20446;-67
2021/06/13 06:27:39;;;;;;;58.00;2.87;;;16.40;1.00;;;;;;5011339;28;20533;-67
2021/06/13 06:30:08;;;;;;;60.60;3.13;;;16.50;1.00;;;;;;5011323;28;20490;-67
2021/06/13 06:32:35;;;;;;;57.70;2.80;;;16.60;1.00;;;;;;5010884;28;20866;-67
2021/06/13 06:35:02;;;;;;;58.00;2.80;;;16.60;1.00;;;;;;5011427;28;20539;-67
2021/06/13 06:37:29;;;;;;;58.37;2.77;;;16.60;1.00;;;;;;5011208;28;20583;-67
2021/06/13 06:39:57;;;;;;;59.00;3.13;;;16.60;1.00;;;;;;5014920;28;20478;-67
2021/06/13 06:42:24;;;;;;;58.17;2.73;;;16.70;1.00;;;;;;5015102;28;20544;-67
2021/06/13 06:44:52;;;;;;;57.87;2.90;;;16.70;1.00;;;;;;5014975;28;20809;-67
2021/06/13 06:47:19;;;;;;;57.63;2.37;;;16.70;1.00;;;;;;5015260;28;20456;-67
2021/06/13 06:49:46;;;;;;;58.23;2.57;;;16.70;1.00;;;;;;5015123;28;20476;-67
2021/06/13 06:52:13;;;;;;;58.60;2.70;;;16.70;1.00;;;;;;5015268;28;20562;-67
2021/06/13 06:54:40;;;;;;;58.27;2.73;;;16.80;1.00;;;;;;5014971;28;20448;-67
2021/06/13 06:57:09;;;;;;;58.57;2.70;;;16.80;1.00;;;;;;5000133;28;20484;-67
2021/06/13 06:59:36;;;;;;;58.33;3.40;;;16.90;1.00;;;;;;5010728;28;20522;-67
2021/06/13 07:02:03;;;;;;;57.70;2.80;;;16.90;1.00;;;;;;5015035;28;20458;-67
2021/06/13 07:04:30;;;;;;;58.27;2.80;;;16.90;1.00;;;;;;5014726;28;20492;-67
2021/06/13 07:06:57;;;;;;;58.10;2.70;;;17.00;1.00;;;;;;5014541;28;20447;-67
2021/06/13 07:09:24;;;;;;;57.77;2.70;;;17.10;1.00;;;;;;5014437;28;21067;-67
2021/06/13 07:11:51;;;;;;;57.77;2.50;;;17.10;1.00;;;;;;5014784;28;20825;-67
2021/06/13 07:14:19;;;;;;;58.50;2.90;;;17.20;1.00;;;;;;5014453;28;20459;-67
2021/06/13 07:16:46;;;;;;;58.13;2.67;;;17.20;1.00;;;;;;5014208;28;20520;-67
2021/06/13 07:19:13;;;;;;;57.77;2.60;;;17.30;1.00;;;;;;5014420;28;20560;-67
2021/06/13 07:21:40;;;;;;;58.10;2.40;;;17.40;1.00;;;;;;5014654;28;20479;-67
2021/06/13 07:24:07;;;;;;;58.17;2.60;;;17.40;1.00;;;;;;5014407;28;20507;-67
2021/06/13 07:26:35;;;;;;;58.37;3.00;;;17.50;1.00;;;;;;5012970;28;20488;-67
2021/06/13 07:29:03;;;;;;;58.53;2.60;;;17.60;1.00;;;;;;5014307;28;20552;-67
2021/06/13 07:31:31;;;;;;;57.97;3.03;;;17.70;1.00;;;;;;5014379;28;20460;-67
2021/06/13 07:33:58;;;;;;;58.00;2.60;;;17.70;1.00;;;;;;5014072;28;21025;-67
2021/06/13 07:36:24;;;;;;;57.73;2.60;;;17.70;1.00;;;;;;5013938;28;20587;-67
2021/06/13 07:38:51;;;;;;;58.07;2.50;;;17.80;1.00;;;;;;5013955;28;20572;-67
2021/06/13 07:41:18;;;;;;;57.77;2.30;;;17.90;1.00;;;;;;5014036;28;20953;-67
2021/06/13 07:43:45;;;;;;;58.20;2.50;;;18.10;1.00;;;;;;5014173;28;20495;-67
2021/06/13 07:46:12;;;;;;;58.40;2.80;;;18.20;1.00;;;;;;5013923;28;20536;-66
2021/06/13 07:48:40;;;;;;;57.77;2.37;;;18.20;1.00;;;;;;5013523;28;20475;-67
2021/06/13 07:51:09;;;;;;;58.20;2.60;;;18.30;1.00;;;;;;5013889;28;20457;-67
2021/06/13 07:53:43;;;;;;;58.37;2.50;;;18.40;1.00;;;;;;5013649;28;20460;-67
2021/06/13 07:56:10;;;;;;;57.93;2.23;;;18.50;1.00;;;;;;5013636;28;20453;-67
2021/06/13 07:58:37;;;;;;;57.37;2.43;;;18.70;1.00;;;;;;5013538;28;20565;-67
2021/06/13 08:01:04;;;;;;;57.83;2.50;;;18.80;1.00;;;;;;5013885;28;20548;-67
2021/06/13 08:03:31;;;;;;;59.57;2.90;;;18.80;1.00;;;;;;5012701;28;20545;-67
2021/06/13 08:05:59;;;;;;;57.77;2.20;;;18.80;1.00;;;;;;5013430;28;20453;-67
2021/06/13 08:08:26;;;;;;;58.50;2.77;;;18.90;1.00;;;;;;5013459;28;20552;-67
2021/06/13 08:10:52;;;;;;;57.80;2.37;;;19.00;1.00;;;;;;5013715;28;20450;-67
2021/06/13 08:13:20;;;;;;;58.20;2.50;;;19.10;1.00;;;;;;5013543;28;21024;-67
2021/06/13 08:15:47;;;;;;;57.67;2.17;;;19.30;1.00;;;;;;5013227;28;20549;-67
2021/06/13 08:18:14;;;;;;;58.10;2.40;;;19.40;1.00;;;;;;5012930;28;20930;-66
2021/06/13 08:20:41;;;;;;;58.40;2.60;;;19.40;1.00;;;;;;5013083;28;20968;-67
2021/06/13 08:23:09;;;;;;;57.53;2.57;;;19.50;1.00;;;;;;5013399;28;20954;-68
2021/06/13 08:25:36;;;;;;;58.37;2.40;;;19.60;1.00;;;;;;5013426;28;20456;-68
2021/06/13 08:28:03;;;;;;;58.43;2.80;;;19.70;1.00;;;;;;5012987;28;20468;-68
2021/06/13 08:30:30;;;;;;;57.77;2.27;;;19.80;1.00;;;;;;5013224;28;20485;-68
2021/06/13 08:32:58;;;;;;;58.80;2.97;;;19.80;1.00;;;;;;5013012;28;20457;-68
2021/06/13 08:35:26;;;;;;;58.57;3.27;;;19.70;1.00;;;;;;5011516;28;20454;-68
2021/06/13 08:37:54;;;;;;;57.57;2.63;;;19.70;1.00;;;;;;4993173;28;21090;-68
2021/06/13 08:40:23;;;;;;;58.27;2.63;;;19.80;1.00;;;;;;4993675;28;20462;-68
2021/06/13 08:42:50;;;;;;;58.00;2.10;;;19.90;1.00;;;;;;4993228;28;20486;-68
2021/06/13 08:45:17;;;;;;;58.07;2.60;;;20.10;1.00;;;;;;4993251;28;20473;-68
2021/06/13 08:47:45;;;;;;;59.27;2.80;;;20.30;1.00;;;;;;4992752;28;20525;-67
2021/06/13 08:50:12;;;;;;;58.20;2.50;;;20.50;1.00;;;;;;4993336;28;20460;-68
2021/06/13 08:52:39;;;;;;;58.10;2.40;;;20.70;1.00;;;;;;4993288;28;20550;-67
2021/06/13 08:55:07;;;;;;;58.17;2.20;;;20.60;1.00;;;;;;4993250;28;20478;-68
2021/06/13 08:57:36;;;;;;;58.07;2.60;;;20.40;1.00;;;;;;4992645;28;21006;-68
2021/06/13 09:00:05;;;;;;;57.77;2.23;;;20.30;1.00;;;;;;4992946;28;20463;-68
2021/06/13 09:02:32;;;;;;;58.03;2.30;;;20.30;1.00;;;;;;4992429;28;20960;-68
2021/06/13 09:04:59;;;;;;;58.00;2.30;;;20.40;1.00;;;;;;4992269;28;20543;-68
2021/06/13 09:07:26;;;;;;;58.40;2.90;;;20.60;1.00;;;;;;5001317;28;20902;-68
2021/06/13 09:09:54;;;;;;;57.83;2.23;;;20.80;1.00;;;;;;5012367;28;20533;-68
2021/06/13 09:12:21;;;;;;;58.20;2.50;;;20.90;1.00;;;;;;5012986;28;20482;-68
2021/06/13 09:14:52;;;;;;;58.37;2.30;;;21.10;1.00;;;;;;5012984;28;20506;-68
2021/06/13 09:17:20;;;;;;;58.30;2.90;;;21.30;1.00;;;;;;5012055;28;20486;-68
2021/06/13 09:20:13;;;;;;;57.57;2.47;;;21.30;1.00;;;;;;5012116;28;20503;-68
2021/06/13 09:22:41;;;;;;;57.87;2.40;;;21.30;1.00;;;;;;5012392;28;20455;-68
2021/06/13 09:25:10;;;;;;;58.07;2.40;;;21.30;1.00;;;;;;5012269;28;20542;-68
2021/06/13 09:27:38;;;;;;;58.60;3.00;;;21.30;1.00;;;;;;5011762;28;20532;-68
2021/06/13 09:30:08;;;;;;;58.00;2.40;;;21.30;1.00;;;;;;5012333;28;20462;-68
2021/06/13 09:33:03;;;;;;;57.57;2.23;;;21.30;1.00;;;;;;5012616;28;20538;-68
2021/06/13 09:35:31;;;;;;;57.87;2.23;;;21.30;1.00;;;;;;5011122;28;20816;-68
2021/06/13 09:38:13;;;;;;;57.90;2.40;;;21.40;1.00;;;;;;5011549;28;20576;-68
2021/06/13 09:40:43;;;;;;;57.73;2.40;;;21.40;1.00;;;;;;5012324;28;20920;-68
2021/06/13 09:43:16;;;;;;;58.60;3.20;;;21.40;1.00;;;;;;5012143;28;20459;-68
2021/06/13 09:45:53;;;;;;;58.20;2.73;;;21.60;1.00;;;;;;5012076;28;20539;-68
2021/06/13 09:48:20;;;;;;;58.10;2.43;;;21.80;1.00;;;;;;5011796;28;20466;-68
2021/06/13 09:50:49;;;;;;;59.13;3.47;;;21.80;1.00;;;;;;5012276;28;20455;-68
2021/06/13 09:53:25;;;;;;;58.10;3.50;;;21.90;1.00;;;;;;5012224;28;20943;-68
2021/06/13 09:56:07;;;;;;;57.67;2.37;;;22.00;1.00;;;;;;5012110;28;20452;-69
2021/06/13 09:58:35;;;;;;;57.90;2.57;;;22.20;1.00;;;;;;5011541;28;21008;-66
2021/06/13 10:01:10;;;;;;;57.87;2.50;;;22.40;1.00;;;;;;5012036;28;20461;-67
2021/06/13 10:03:38;;;;;;;58.10;2.50;;;22.50;1.00;;;;;;5012207;28;20448;-67
2021/06/13 10:06:10;;;;;;;57.87;2.50;;;22.60;1.00;;;;;;5010862;28;20886;-69
2021/06/13 10:08:38;;;;;;;58.13;2.60;;;22.80;1.00;;;;;;5011678;28;20483;-67
2021/06/13 10:11:06;;;;;;;58.07;2.50;;;23.10;1.00;;;;;;5011804;28;20497;-68
2021/06/13 10:13:41;;;;;;;57.83;2.43;;;23.40;1.00;;;;;;5013626;28;20541;-68
2021/06/13 10:16:11;;;;;;;58.07;3.27;;;23.70;1.00;;;;;;5015372;28;20934;-69
2021/06/13 10:18:40;;;;;;;57.90;2.33;;;23.90;1.00;;;;;;5015363;28;20494;-69
2021/06/13 10:21:09;;;;;;;58.50;2.70;;;24.20;1.00;;;;;;5015610;28;20469;-68
2021/06/13 10:23:37;;;;;;;58.20;2.53;;;24.50;1.00;;;;;;5015458;28;20528;-69
2021/06/13 10:26:06;;;;;;;57.97;2.57;;;25.60;1.00;;;;;;5015530;28;20487;-67
2021/06/13 10:28:33;;;;;;;57.70;2.30;;;26.90;1.00;;;;;;5015385;28;20470;-67
2021/06/13 10:31:01;;;;;;;57.90;2.30;;;28.30;1.00;;;;;;5015462;28;20888;-67
2021/06/13 10:33:30;;;;;;;57.87;2.47;;;29.50;1.00;;;;;;5015456;28;20477;-68
2021/06/13 10:36:00;;;;;;;57.30;2.20;;;30.50;1.00;;;;;;5015291;28;20452;-67
2021/06/13 10:38:28;;;;;;;57.53;2.20;;;31.30;1.00;;;;;;5001669;28;20497;-68
2021/06/13 10:40:55;;;;;;;57.37;2.00;;;32.10;1.00;;;;;;4995599;28;20455;-68
2021/06/13 10:43:23;;;;;;;57.13;2.03;;;32.60;1.00;;;;;;4995901;28;20477;-68
2021/06/13 10:45:51;;;;;;;57.37;2.20;;;33.00;1.00;;;;;;4995707;28;20446;-69
2021/06/13 10:48:18;;;;;;;57.70;2.67;;;33.50;1.00;;;;;;4995383;28;20998;-68
2021/06/13 10:50:47;;;;;;;57.30;2.20;;;33.90;1.00;;;;;;4995802;28;20453;-69
2021/06/13 10:53:14;;;;;;;57.20;2.20;;;34.10;1.00;;;;;;4995607;28;20555;-68
2021/06/13 10:55:49;;;;;;;56.97;2.20;;;34.40;1.00;;;;;;4995479;28;20538;-68
2021/06/13 10:58:47;;;;;;;57.20;2.40;;;34.60;1.00;;;;;;4994743;28;21017;-68
2021/06/13 11:01:33;;;;;;;57.17;2.10;;;34.80;1.00;;;;;;4995099;28;20462;-68
2021/06/13 11:04:04;;;;;;;56.87;2.10;;;34.90;1.00;;;;;;4995443;28;20473;-68
2021/06/13 11:06:48;;;;;;;58.70;2.20;;;35.30;1.00;;;;;;4994864;28;20998;-68
2021/06/13 11:09:17;;;;;;;57.80;2.30;;;35.80;1.00;;;;;;4993827;28;20525;-68
2021/06/13 11:11:45;;;;;;;57.10;2.00;;;36.00;1.00;;;;;;5009113;28;20450;-68
2021/06/13 11:14:26;;;;;;;58.37;2.60;;;36.10;1.00;;;;;;5014567;28;20531;-67
2021/06/13 11:16:54;;;;;;;57.00;2.20;;;36.40;1.00;;;;;;5014436;28;20528;-68
2021/06/13 11:19:32;;;;;;;57.10;2.40;;;36.60;1.00;;;;;;5014398;28;20514;-67
2021/06/13 11:22:35;;;;;;;57.20;2.23;;;36.70;1.00;;;;;;5014335;28;20545;-68
2021/06/13 11:25:02;;;;;;;57.20;2.10;;;37.00;1.00;;;;;;5013965;28;20576;-67
2021/06/13 11:27:32;;;;;;;57.50;2.57;;;37.30;1.00;;;;;;5014113;28;20520;-67
2021/06/13 11:30:00;;;;;;;56.83;2.10;;;37.70;1.00;;;;;;5014274;28;20461;-67
2021/06/13 11:32:53;;;;;;;57.37;2.20;;;37.90;1.00;;;;;;5014208;28;20450;-67
2021/06/13 11:35:28;;;;;;;57.17;2.30;;;37.90;1.00;;;;;;5014205;28;20545;-67
2021/06/13 11:38:27;;;;;;;57.00;2.40;;;38.00;1.00;;;;;;5014291;28;20530;-67
2021/06/13 11:40:56;;;;;;;57.20;2.33;;;38.00;1.00;;;;;;5012463;28;20541;-67
2021/06/13 11:43:30;;;;;;;56.70;2.00;;;38.20;1.00;;;;;;4994554;28;20542;-67
2021/06/13 11:45:59;;;;;;;56.77;2.10;;;38.40;1.00;;;;;;4994569;28;20541;-68
2021/06/13 11:48:28;;;;;;;57.00;2.50;;;38.70;1.00;;;;;;4994503;28;20498;-68
2021/06/13 11:51:10;;;;;;;57.17;2.57;;;39.10;1.00;;;;;;4994511;28;20457;-68
2021/06/13 11:53:56;;;;;;;56.77;2.10;;;39.40;1.00;;;;;;4994672;28;20538;-68
2021/06/13 11:56:42;;;;;;;56.77;2.00;;;39.40;1.00;;;;;;4993891;28;21007;-67
2021/06/13 11:59:12;;;;;;;56.77;2.00;;;39.60;1.00;;;;;;4993916;28;20491;-68
2021/06/13 12:01:40;;;;;;;56.70;2.10;;;39.70;1.00;;;;;;4993913;28;20529;-67
2021/06/13 12:04:08;;;;;;;57.00;2.30;;;39.60;1.00;;;;;;4994266;28;20534;-68
2021/06/13 12:06:37;;;;;;;56.67;2.07;;;39.70;1.00;;;;;;4993954;28;20542;-67
2021/06/13 12:09:08;;;;;;;56.80;2.10;;;39.50;1.00;;;;;;4993899;28;20474;-67
2021/06/13 12:11:45;;;;;;;56.63;2.00;;;39.50;1.00;;;;;;5007999;28;20478;-67
2021/06/13 12:14:33;;;;;;;56.80;2.30;;;39.60;1.00;;;;;;5013270;28;20449;-68
2021/06/13 12:17:02;;;;;;;57.07;2.20;;;39.50;1.00;;;;;;5013440;28;20481;-67
2021/06/13 12:19:33;;;;;;;57.33;2.30;;;39.50;1.00;;;;;;5013147;28;20485;-68
2021/06/13 12:22:23;;;;;;;57.07;2.23;;;39.70;1.00;;;;;;5013301;28;20957;-66
2021/06/13 12:27:34;;;;;;;56.80;2.30;;;40.20;1.00;;;;;;5001086;28;20806;-68
2021/06/13 12:30:03;;;;;;;56.77;1.97;;;40.20;1.00;;;;;;5013256;28;20477;-68
2021/06/13 12:32:31;;;;;;;56.87;2.20;;;40.20;1.00;;;;;;5013142;28;20536;-68
2021/06/13 12:35:10;;;;;;;56.70;2.07;;;40.20;1.00;;;;;;5012562;28;20450;-68
2021/06/13 12:37:37;;;;;;;56.73;2.10;;;40.20;1.00;;;;;;5012408;28;20836;-68
2021/06/13 12:40:08;;;;;;;56.87;2.13;;;40.30;1.00;;;;;;5012978;28;20544;-68
2021/06/13 12:42:36;;;;;;;56.87;2.10;;;40.30;1.00;;;;;;4995635;28;20450;-68
2021/06/13 12:45:06;;;;;;;57.67;2.43;;;40.40;1.00;;;;;;5011961;28;20816;-68
2021/06/13 12:47:34;;;;;;;56.77;2.00;;;40.40;1.00;;;;;;5012459;28;20504;-68
2021/06/13 12:50:01;;;;;;;56.77;2.30;;;40.40;1.00;;;;;;5012682;28;20482;-68
2021/06/13 12:52:29;;;;;;;56.97;2.23;;;40.50;1.00;;;;;;5012667;28;20537;-69
2021/06/13 12:54:59;;;;;;;56.70;2.13;;;40.30;1.00;;;;;;5012671;28;20472;-68
2021/06/13 12:57:27;;;;;;;56.70;2.00;;;40.20;1.00;;;;;;5012590;28;20477;-68
2021/06/13 12:59:55;;;;;;;56.73;2.20;;;40.10;1.00;;;;;;5012334;28;20586;-69
2021/06/13 13:02:23;;;;;;;56.70;2.60;;;39.80;1.00;;;;;;5012870;28;20545;-69